sensor_id;sensor_type;location;lat;lon;timestamp;P1;durP1;ratioP1;P2;durP2;ratioP2
11988;SDS011;6054;50.966;7.094;2023-02-01T00:01:47;13.85;;;6.68;;
11988;SDS011;6054;50.966;7.094;2023-02-01T00:04:13;19.20;;;6.82;;
11988;SDS011;6054;50.966;7.094;2023-02-01T00:06:42;16.58;;;5.90;;
11988;SDS011;6054;50.966;7.094;2023-02-01T00:09:08;20.20;;;6.03;;
11988;SDS011;6054;50.966;7.094;2023-02-01T00:11:35;17.67;;;6.47;;
11988;SDS011;6054;50.966;7.094;2023-02-01T00:14:02;13.65;;;6.25;;
11988;SDS011;6054;50.966;7.094;2023-02-01T00:16:30;24.25;;;6.07;;
11988;SDS011;6054;50.966;7.094;2023-02-01T00:18:57;18.33;;;6.00;;
11988;SDS011;6054;50.966;7.094;2023-02-01T00:21:26;13.95;;;5.43;;
11988;SDS011;6054;50.966;7.094;2023-02-01T00:23:54;15.75;;;6.00;;
11988;SDS011;6054;50.966;7.094;2023-02-01T00:26:22;12.07;;;5.53;;
11988;SDS011;6054;50.966;7.094;2023-02-01T00:28:55;16.13;;;5.45;;
11988;SDS011;6054;50.966;7.094;2023-02-01T00:31:22;16.02;;;5.85;;
11988;SDS011;6054;50.966;7.094;2023-02-01T00:33:49;18.10;;;6.00;;
11988;SDS011;6054;50.966;7.094;2023-02-01T00:36:16;18.13;;;6.47;;
11988;SDS011;6054;50.966;7.094;2023-02-01T00:38:43;12.52;;;5.25;;
11988;SDS011;6054;50.966;7.094;2023-02-01T00:41:12;22.85;;;6.22;;
11988;SDS011;6054;50.966;7.094;2023-02-01T00:43:40;23.77;;;5.97;;
11988;SDS011;6054;50.966;7.094;2023-02-01T00:46:08;15.00;;;5.55;;
11988;SDS011;6054;50.966;7.094;2023-02-01T00:48:35;16.83;;;6.15;;
11988;SDS011;6054;50.966;7.094;2023-02-01T00:51:03;19.73;;;6.15;;
11988;SDS011;6054;50.966;7.094;2023-02-01T00:53:32;14.13;;;5.85;;
11988;SDS011;6054;50.966;7.094;2023-02-01T00:55:59;21.17;;;5.07;;
11988;SDS011;6054;50.966;7.094;2023-02-01T00:58:27;20.45;;;5.40;;
11988;SDS011;6054;50.966;7.094;2023-02-01T01:01:00;13.48;;;4.93;;
11988;SDS011;6054;50.966;7.094;2023-02-01T01:03:28;17.13;;;5.45;;
11988;SDS011;6054;50.966;7.094;2023-02-01T01:05:58;13.80;;;4.82;;
11988;SDS011;6054;50.966;7.094;2023-02-01T01:08:25;20.42;;;4.30;;
11988;SDS011;6054;50.966;7.094;2023-02-01T01:10:52;12.07;;;4.30;;
11988;SDS011;6054;50.966;7.094;2023-02-01T01:13:19;16.63;;;4.60;;
11988;SDS011;6054;50.966;7.094;2023-02-01T01:15:48;14.30;;;4.25;;
11988;SDS011;6054;50.966;7.094;2023-02-01T01:18:14;16.80;;;4.55;;
11988;SDS011;6054;50.966;7.094;2023-02-01T01:20:41;16.80;;;4.45;;
11988;SDS011;6054;50.966;7.094;2023-02-01T01:23:08;13.57;;;3.75;;
11988;SDS011;6054;50.966;7.094;2023-02-01T01:25:36;19.60;;;3.72;;
11988;SDS011;6054;50.966;7.094;2023-02-01T01:28:03;14.45;;;3.97;;
11988;SDS011;6054;50.966;7.094;2023-02-01T01:30:30;11.48;;;3.50;;
11988;SDS011;6054;50.966;7.094;2023-02-01T01:32:59;14.50;;;3.45;;
11988;SDS011;6054;50.966;7.094;2023-02-01T01:35:25;17.13;;;3.72;;
11988;SDS011;6054;50.966;7.094;2023-02-01T01:37:54;12.75;;;3.83;;
11988;SDS011;6054;50.966;7.094;2023-02-01T01:40:21;10.85;;;3.15;;
11988;SDS011;6054;50.966;7.094;2023-02-01T01:42:47;16.33;;;3.47;;
11988;SDS011;6054;50.966;7.094;2023-02-01T01:45:20;16.40;;;3.13;;
11988;SDS011;6054;50.966;7.094;2023-02-01T01:47:50;17.33;;;3.83;;
11988;SDS011;6054;50.966;7.094;2023-02-01T01:50:23;12.40;;;3.10;;
11988;SDS011;6054;50.966;7.094;2023-02-01T01:52:55;11.73;;;3.47;;
11988;SDS011;6054;50.966;7.094;2023-02-01T01:55:27;11.77;;;3.20;;
11988;SDS011;6054;50.966;7.094;2023-02-01T01:57:57;11.60;;;2.95;;
11988;SDS011;6054;50.966;7.094;2023-02-01T02:00:27;10.00;;;2.75;;
11988;SDS011;6054;50.966;7.094;2023-02-01T02:02:54;13.23;;;3.45;;
11988;SDS011;6054;50.966;7.094;2023-02-01T02:05:26;14.15;;;3.00;;
11988;SDS011;6054;50.966;7.094;2023-02-01T02:07:54;10.68;;;2.58;;
11988;SDS011;6054;50.966;7.094;2023-02-01T02:10:25;14.77;;;3.10;;
11988;SDS011;6054;50.966;7.094;2023-02-01T02:13:12;14.23;;;3.15;;
11988;SDS011;6054;50.966;7.094;2023-02-01T02:15:41;16.17;;;3.10;;
11988;SDS011;6054;50.966;7.094;2023-02-01T02:18:13;8.20;;;2.50;;
11988;SDS011;6054;50.966;7.094;2023-02-01T02:20:52;18.73;;;3.60;;
11988;SDS011;6054;50.966;7.094;2023-02-01T02:26:52;8.57;;;2.90;;
11988;SDS011;6054;50.966;7.094;2023-02-01T02:33:00;10.77;;;3.10;;
11988;SDS011;6054;50.966;7.094;2023-02-01T02:35:57;10.25;;;3.40;;
11988;SDS011;6054;50.966;7.094;2023-02-01T02:38:29;14.68;;;3.53;;
11988;SDS011;6054;50.966;7.094;2023-02-01T02:41:01;10.82;;;3.25;;
11988;SDS011;6054;50.966;7.094;2023-02-01T02:43:37;13.00;;;3.13;;
11988;SDS011;6054;50.966;7.094;2023-02-01T02:46:28;8.52;;;2.50;;
11988;SDS011;6054;50.966;7.094;2023-02-01T02:49:20;12.15;;;2.90;;
11988;SDS011;6054;50.966;7.094;2023-02-01T02:51:56;9.68;;;2.60;;
11988;SDS011;6054;50.966;7.094;2023-02-01T02:54:45;13.15;;;3.10;;
11988;SDS011;6054;50.966;7.094;2023-02-01T02:57:16;12.43;;;3.88;;
11988;SDS011;6054;50.966;7.094;2023-02-01T03:00:04;27.98;;;3.83;;
11988;SDS011;6054;50.966;7.094;2023-02-01T03:02:51;14.88;;;3.20;;
11988;SDS011;6054;50.966;7.094;2023-02-01T03:05:37;11.13;;;3.67;;
11988;SDS011;6054;50.966;7.094;2023-02-01T03:08:11;16.70;;;3.53;;
11988;SDS011;6054;50.966;7.094;2023-02-01T03:10:42;12.40;;;3.40;;
11988;SDS011;6054;50.966;7.094;2023-02-01T03:13:16;20.42;;;3.50;;
11988;SDS011;6054;50.966;7.094;2023-02-01T03:15:50;15.82;;;3.35;;
11988;SDS011;6054;50.966;7.094;2023-02-01T03:18:24;14.57;;;3.53;;
11988;SDS011;6054;50.966;7.094;2023-02-01T03:20:54;14.13;;;4.22;;
11988;SDS011;6054;50.966;7.094;2023-02-01T03:23:25;15.38;;;3.80;;
11988;SDS011;6054;50.966;7.094;2023-02-01T03:25:55;13.95;;;4.10;;
11988;SDS011;6054;50.966;7.094;2023-02-01T03:28:24;14.15;;;4.30;;
11988;SDS011;6054;50.966;7.094;2023-02-01T03:30:54;14.15;;;4.10;;
11988;SDS011;6054;50.966;7.094;2023-02-01T03:33:21;12.52;;;4.40;;
11988;SDS011;6054;50.966;7.094;2023-02-01T03:35:54;14.45;;;3.80;;
11988;SDS011;6054;50.966;7.094;2023-02-01T03:38:29;16.27;;;4.25;;
11988;SDS011;6054;50.966;7.094;2023-02-01T03:41:01;15.50;;;4.20;;
11988;SDS011;6054;50.966;7.094;2023-02-01T03:43:34;14.20;;;4.60;;
11988;SDS011;6054;50.966;7.094;2023-02-01T03:46:09;15.38;;;3.33;;
11988;SDS011;6054;50.966;7.094;2023-02-01T03:48:40;14.50;;;3.67;;
11988;SDS011;6054;50.966;7.094;2023-02-01T03:51:08;14.80;;;3.90;;
11988;SDS011;6054;50.966;7.094;2023-02-01T03:53:37;11.50;;;3.60;;
11988;SDS011;6054;50.966;7.094;2023-02-01T03:56:07;14.87;;;4.40;;
11988;SDS011;6054;50.966;7.094;2023-02-01T03:58:36;19.40;;;4.03;;
11988;SDS011;6054;50.966;7.094;2023-02-01T04:01:03;11.13;;;3.67;;
11988;SDS011;6054;50.966;7.094;2023-02-01T04:03:30;18.92;;;4.15;;
11988;SDS011;6054;50.966;7.094;2023-02-01T04:05:57;15.40;;;4.25;;
11988;SDS011;6054;50.966;7.094;2023-02-01T04:08:24;16.42;;;4.95;;
11988;SDS011;6054;50.966;7.094;2023-02-01T04:10:52;14.65;;;3.70;;
11988;SDS011;6054;50.966;7.094;2023-02-01T04:13:18;16.13;;;4.57;;
11988;SDS011;6054;50.966;7.094;2023-02-01T04:15:46;12.38;;;3.65;;
11988;SDS011;6054;50.966;7.094;2023-02-01T04:18:14;15.40;;;3.40;;
11988;SDS011;6054;50.966;7.094;2023-02-01T04:20:42;13.67;;;3.30;;
11988;SDS011;6054;50.966;7.094;2023-02-01T04:23:09;14.15;;;3.88;;
11988;SDS011;6054;50.966;7.094;2023-02-01T04:25:35;13.43;;;2.88;;
11988;SDS011;6054;50.966;7.094;2023-02-01T04:28:03;11.55;;;3.10;;
11988;SDS011;6054;50.966;7.094;2023-02-01T04:30:31;13.65;;;3.35;;
11988;SDS011;6054;50.966;7.094;2023-02-01T04:32:58;11.10;;;3.90;;
11988;SDS011;6054;50.966;7.094;2023-02-01T04:35:25;11.77;;;3.90;;
11988;SDS011;6054;50.966;7.094;2023-02-01T04:37:52;14.63;;;3.35;;
11988;SDS011;6054;50.966;7.094;2023-02-01T04:40:19;15.07;;;3.75;;
11988;SDS011;6054;50.966;7.094;2023-02-01T04:42:45;15.03;;;3.90;;
11988;SDS011;6054;50.966;7.094;2023-02-01T04:45:14;18.00;;;3.95;;
11988;SDS011;6054;50.966;7.094;2023-02-01T04:47:40;13.02;;;3.53;;
11988;SDS011;6054;50.966;7.094;2023-02-01T04:50:07;13.95;;;3.40;;
11988;SDS011;6054;50.966;7.094;2023-02-01T04:52:35;20.85;;;4.22;;
11988;SDS011;6054;50.966;7.094;2023-02-01T04:55:03;18.97;;;4.27;;
11988;SDS011;6054;50.966;7.094;2023-02-01T04:57:30;14.32;;;3.33;;
11988;SDS011;6054;50.966;7.094;2023-02-01T04:59:57;15.60;;;3.78;;
11988;SDS011;6054;50.966;7.094;2023-02-01T05:02:25;13.30;;;3.45;;
11988;SDS011;6054;50.966;7.094;2023-02-01T05:04:52;18.50;;;3.95;;
11988;SDS011;6054;50.966;7.094;2023-02-01T05:07:20;13.90;;;3.30;;
11988;SDS011;6054;50.966;7.094;2023-02-01T05:09:47;12.03;;;2.70;;
11988;SDS011;6054;50.966;7.094;2023-02-01T05:12:14;20.58;;;4.38;;
11988;SDS011;6054;50.966;7.094;2023-02-01T05:14:58;14.27;;;3.77;;
11988;SDS011;6054;50.966;7.094;2023-02-01T05:17:26;10.10;;;2.80;;
11988;SDS011;6054;50.966;7.094;2023-02-01T05:19:53;13.00;;;2.83;;
11988;SDS011;6054;50.966;7.094;2023-02-01T05:22:19;13.45;;;3.67;;
11988;SDS011;6054;50.966;7.094;2023-02-01T05:24:46;15.52;;;3.33;;
11988;SDS011;6054;50.966;7.094;2023-02-01T05:27:13;16.23;;;3.23;;
11988;SDS011;6054;50.966;7.094;2023-02-01T05:29:40;13.05;;;2.88;;
11988;SDS011;6054;50.966;7.094;2023-02-01T05:32:08;12.95;;;3.00;;
11988;SDS011;6054;50.966;7.094;2023-02-01T05:34:37;14.82;;;3.28;;
11988;SDS011;6054;50.966;7.094;2023-02-01T05:37:04;15.90;;;3.20;;
11988;SDS011;6054;50.966;7.094;2023-02-01T05:39:30;11.77;;;2.70;;
11988;SDS011;6054;50.966;7.094;2023-02-01T05:41:57;9.85;;;2.45;;
11988;SDS011;6054;50.966;7.094;2023-02-01T05:44:24;15.73;;;3.42;;
11988;SDS011;6054;50.966;7.094;2023-02-01T05:46:50;13.03;;;3.00;;
11988;SDS011;6054;50.966;7.094;2023-02-01T05:49:18;14.00;;;3.17;;
11988;SDS011;6054;50.966;7.094;2023-02-01T05:51:46;15.07;;;2.93;;
11988;SDS011;6054;50.966;7.094;2023-02-01T05:54:12;13.63;;;3.60;;
11988;SDS011;6054;50.966;7.094;2023-02-01T05:56:39;15.83;;;2.77;;
11988;SDS011;6054;50.966;7.094;2023-02-01T05:59:06;20.60;;;3.50;;
11988;SDS011;6054;50.966;7.094;2023-02-01T06:01:34;12.93;;;3.50;;
11988;SDS011;6054;50.966;7.094;2023-02-01T06:04:01;14.55;;;2.72;;
11988;SDS011;6054;50.966;7.094;2023-02-01T06:06:28;16.98;;;3.63;;
11988;SDS011;6054;50.966;7.094;2023-02-01T06:08:56;13.48;;;3.42;;
11988;SDS011;6054;50.966;7.094;2023-02-01T06:11:22;12.95;;;3.22;;
11988;SDS011;6054;50.966;7.094;2023-02-01T06:13:49;9.85;;;2.53;;
11988;SDS011;6054;50.966;7.094;2023-02-01T06:16:16;15.18;;;3.10;;
11988;SDS011;6054;50.966;7.094;2023-02-01T06:18:43;18.25;;;3.10;;
11988;SDS011;6054;50.966;7.094;2023-02-01T06:21:09;15.10;;;3.42;;
11988;SDS011;6054;50.966;7.094;2023-02-01T06:23:38;19.70;;;3.38;;
11988;SDS011;6054;50.966;7.094;2023-02-01T06:26:06;11.90;;;3.47;;
11988;SDS011;6054;50.966;7.094;2023-02-01T06:28:33;12.85;;;2.60;;
11988;SDS011;6054;50.966;7.094;2023-02-01T06:31:02;12.63;;;3.03;;
11988;SDS011;6054;50.966;7.094;2023-02-01T06:33:31;10.90;;;2.75;;
11988;SDS011;6054;50.966;7.094;2023-02-01T06:35:59;20.47;;;3.67;;
11988;SDS011;6054;50.966;7.094;2023-02-01T06:38:28;18.88;;;3.05;;
11988;SDS011;6054;50.966;7.094;2023-02-01T06:40:56;12.10;;;3.00;;
11988;SDS011;6054;50.966;7.094;2023-02-01T06:43:25;11.23;;;2.97;;
11988;SDS011;6054;50.966;7.094;2023-02-01T06:45:58;12.88;;;2.85;;
11988;SDS011;6054;50.966;7.094;2023-02-01T06:48:26;12.68;;;2.65;;
11988;SDS011;6054;50.966;7.094;2023-02-01T06:50:53;13.17;;;3.20;;
11988;SDS011;6054;50.966;7.094;2023-02-01T06:53:19;15.40;;;3.00;;
11988;SDS011;6054;50.966;7.094;2023-02-01T06:55:52;18.13;;;3.23;;
11988;SDS011;6054;50.966;7.094;2023-02-01T06:58:22;10.13;;;2.60;;
11988;SDS011;6054;50.966;7.094;2023-02-01T07:00:53;13.27;;;3.78;;
11988;SDS011;6054;50.966;7.094;2023-02-01T07:03:20;15.60;;;2.97;;
11988;SDS011;6054;50.966;7.094;2023-02-01T07:05:47;15.10;;;2.80;;
11988;SDS011;6054;50.966;7.094;2023-02-01T07:08:14;13.68;;;3.13;;
11988;SDS011;6054;50.966;7.094;2023-02-01T07:10:40;12.00;;;3.20;;
11988;SDS011;6054;50.966;7.094;2023-02-01T07:13:07;15.43;;;3.40;;
11988;SDS011;6054;50.966;7.094;2023-02-01T07:15:35;14.02;;;3.28;;
11988;SDS011;6054;50.966;7.094;2023-02-01T07:18:02;11.07;;;2.87;;
11988;SDS011;6054;50.966;7.094;2023-02-01T07:20:29;13.55;;;2.97;;
11988;SDS011;6054;50.966;7.094;2023-02-01T07:22:56;13.27;;;3.60;;
11988;SDS011;6054;50.966;7.094;2023-02-01T07:25:23;20.60;;;3.35;;
11988;SDS011;6054;50.966;7.094;2023-02-01T07:27:50;15.67;;;3.17;;
11988;SDS011;6054;50.966;7.094;2023-02-01T07:30:17;18.40;;;3.90;;
11988;SDS011;6054;50.966;7.094;2023-02-01T07:32:45;15.30;;;3.10;;
11988;SDS011;6054;50.966;7.094;2023-02-01T07:35:12;14.00;;;3.15;;
11988;SDS011;6054;50.966;7.094;2023-02-01T07:37:39;14.85;;;3.05;;
11988;SDS011;6054;50.966;7.094;2023-02-01T07:40:06;13.98;;;3.33;;
11988;SDS011;6054;50.966;7.094;2023-02-01T07:42:34;11.43;;;2.60;;
11988;SDS011;6054;50.966;7.094;2023-02-01T07:45:01;13.80;;;3.25;;
11988;SDS011;6054;50.966;7.094;2023-02-01T07:47:28;18.20;;;3.92;;
11988;SDS011;6054;50.966;7.094;2023-02-01T07:49:56;18.38;;;3.63;;
11988;SDS011;6054;50.966;7.094;2023-02-01T07:52:23;17.75;;;3.83;;
11988;SDS011;6054;50.966;7.094;2023-02-01T07:54:50;17.23;;;3.42;;
11988;SDS011;6054;50.966;7.094;2023-02-01T07:57:16;23.33;;;4.05;;
11988;SDS011;6054;50.966;7.094;2023-02-01T07:59:43;10.23;;;3.35;;
11988;SDS011;6054;50.966;7.094;2023-02-01T08:02:24;15.60;;;3.40;;
11988;SDS011;6054;50.966;7.094;2023-02-01T08:04:51;15.98;;;3.88;;
11988;SDS011;6054;50.966;7.094;2023-02-01T08:07:19;12.90;;;3.23;;
11988;SDS011;6054;50.966;7.094;2023-02-01T08:09:47;17.47;;;3.77;;
11988;SDS011;6054;50.966;7.094;2023-02-01T08:12:13;14.90;;;4.32;;
11988;SDS011;6054;50.966;7.094;2023-02-01T08:14:40;22.08;;;4.22;;
11988;SDS011;6054;50.966;7.094;2023-02-01T08:17:07;17.23;;;3.40;;
11988;SDS011;6054;50.966;7.094;2023-02-01T08:19:34;14.87;;;3.67;;
11988;SDS011;6054;50.966;7.094;2023-02-01T08:22:00;13.98;;;3.22;;
11988;SDS011;6054;50.966;7.094;2023-02-01T08:24:33;17.00;;;3.78;;
11988;SDS011;6054;50.966;7.094;2023-02-01T08:27:00;14.65;;;3.05;;
11988;SDS011;6054;50.966;7.094;2023-02-01T08:29:27;19.38;;;3.63;;
11988;SDS011;6054;50.966;7.094;2023-02-01T08:31:54;13.95;;;2.95;;
11988;SDS011;6054;50.966;7.094;2023-02-01T08:34:21;11.88;;;3.38;;
11988;SDS011;6054;50.966;7.094;2023-02-01T08:36:48;14.63;;;3.10;;
11988;SDS011;6054;50.966;7.094;2023-02-01T08:39:16;13.20;;;2.90;;
11988;SDS011;6054;50.966;7.094;2023-02-01T08:41:45;17.13;;;3.40;;
11988;SDS011;6054;50.966;7.094;2023-02-01T08:44:33;16.88;;;3.70;;
11988;SDS011;6054;50.966;7.094;2023-02-01T08:47:00;18.90;;;4.28;;
11988;SDS011;6054;50.966;7.094;2023-02-01T08:49:26;13.75;;;3.00;;
11988;SDS011;6054;50.966;7.094;2023-02-01T08:51:53;12.02;;;3.28;;
11988;SDS011;6054;50.966;7.094;2023-02-01T08:54:20;14.23;;;3.03;;
11988;SDS011;6054;50.966;7.094;2023-02-01T08:56:48;14.20;;;2.95;;
11988;SDS011;6054;50.966;7.094;2023-02-01T08:59:15;14.35;;;3.75;;
11988;SDS011;6054;50.966;7.094;2023-02-01T09:01:41;12.85;;;3.00;;
11988;SDS011;6054;50.966;7.094;2023-02-01T09:04:08;15.00;;;3.33;;
11988;SDS011;6054;50.966;7.094;2023-02-01T09:06:35;15.07;;;3.33;;
11988;SDS011;6054;50.966;7.094;2023-02-01T09:09:02;15.57;;;3.40;;
11988;SDS011;6054;50.966;7.094;2023-02-01T09:11:29;12.52;;;3.15;;
11988;SDS011;6054;50.966;7.094;2023-02-01T09:13:57;9.63;;;2.90;;
11988;SDS011;6054;50.966;7.094;2023-02-01T09:16:23;18.65;;;3.30;;
11988;SDS011;6054;50.966;7.094;2023-02-01T09:18:50;15.95;;;3.10;;
11988;SDS011;6054;50.966;7.094;2023-02-01T09:21:17;20.38;;;3.10;;
11988;SDS011;6054;50.966;7.094;2023-02-01T09:23:44;14.07;;;2.83;;
11988;SDS011;6054;50.966;7.094;2023-02-01T09:26:13;16.73;;;3.72;;
11988;SDS011;6054;50.966;7.094;2023-02-01T09:28:40;10.25;;;3.00;;
11988;SDS011;6054;50.966;7.094;2023-02-01T09:31:08;8.45;;;2.85;;
11988;SDS011;6054;50.966;7.094;2023-02-01T09:33:35;13.38;;;3.45;;
11988;SDS011;6054;50.966;7.094;2023-02-01T09:36:03;16.40;;;3.60;;
11988;SDS011;6054;50.966;7.094;2023-02-01T09:38:31;11.43;;;3.08;;
11988;SDS011;6054;50.966;7.094;2023-02-01T09:40:59;11.07;;;2.75;;
11988;SDS011;6054;50.966;7.094;2023-02-01T09:43:34;14.20;;;7.18;;
11988;SDS011;6054;50.966;7.094;2023-02-01T09:46:15;8.45;;;2.30;;
11988;SDS011;6054;50.966;7.094;2023-02-01T09:48:46;14.35;;;2.40;;
11988;SDS011;6054;50.966;7.094;2023-02-01T09:51:15;16.98;;;2.92;;
11988;SDS011;6054;50.966;7.094;2023-02-01T09:53:47;12.25;;;3.50;;
11988;SDS011;6054;50.966;7.094;2023-02-01T09:56:20;16.67;;;3.80;;
11988;SDS011;6054;50.966;7.094;2023-02-01T09:58:51;9.80;;;2.60;;
11988;SDS011;6054;50.966;7.094;2023-02-01T10:01:23;20.98;;;3.42;;
11988;SDS011;6054;50.966;7.094;2023-02-01T10:03:52;12.13;;;2.63;;
11988;SDS011;6054;50.966;7.094;2023-02-01T10:09:15;12.98;;;2.88;;
11988;SDS011;6054;50.966;7.094;2023-02-01T10:11:53;12.23;;;3.40;;
11988;SDS011;6054;50.966;7.094;2023-02-01T10:14:49;13.13;;;2.80;;
11988;SDS011;6054;50.966;7.094;2023-02-01T10:17:28;17.23;;;3.33;;
11988;SDS011;6054;50.966;7.094;2023-02-01T10:20:10;14.07;;;3.13;;
11988;SDS011;6054;50.966;7.094;2023-02-01T10:22:43;17.95;;;3.42;;
11988;SDS011;6054;50.966;7.094;2023-02-01T10:25:13;13.52;;;3.17;;
11988;SDS011;6054;50.966;7.094;2023-02-01T10:27:45;15.73;;;3.13;;
11988;SDS011;6054;50.966;7.094;2023-02-01T10:30:16;15.10;;;4.13;;
11988;SDS011;6054;50.966;7.094;2023-02-01T10:32:47;14.45;;;3.70;;
11988;SDS011;6054;50.966;7.094;2023-02-01T10:35:16;10.63;;;3.03;;
11988;SDS011;6054;50.966;7.094;2023-02-01T10:37:47;15.27;;;3.03;;
11988;SDS011;6054;50.966;7.094;2023-02-01T10:40:16;10.80;;;3.20;;
11988;SDS011;6054;50.966;7.094;2023-02-01T10:42:47;15.90;;;3.03;;
11988;SDS011;6054;50.966;7.094;2023-02-01T10:45:16;16.13;;;3.42;;
11988;SDS011;6054;50.966;7.094;2023-02-01T10:47:48;13.95;;;2.85;;
11988;SDS011;6054;50.966;7.094;2023-02-01T10:50:18;14.95;;;3.38;;
11988;SDS011;6054;50.966;7.094;2023-02-01T10:52:52;10.15;;;2.55;;
11988;SDS011;6054;50.966;7.094;2023-02-01T10:55:32;13.23;;;3.83;;
11988;SDS011;6054;50.966;7.094;2023-02-01T10:58:01;15.00;;;3.28;;
11988;SDS011;6054;50.966;7.094;2023-02-01T11:00:33;12.90;;;2.78;;
11988;SDS011;6054;50.966;7.094;2023-02-01T11:03:20;11.77;;;2.72;;
11988;SDS011;6054;50.966;7.094;2023-02-01T11:05:54;13.80;;;3.10;;
11988;SDS011;6054;50.966;7.094;2023-02-01T11:08:21;12.02;;;2.97;;
11988;SDS011;6054;50.966;7.094;2023-02-01T11:10:49;9.38;;;3.00;;
11988;SDS011;6054;50.966;7.094;2023-02-01T11:13:28;14.60;;;2.72;;
11988;SDS011;6054;50.966;7.094;2023-02-01T11:15:57;12.48;;;2.60;;
11988;SDS011;6054;50.966;7.094;2023-02-01T11:18:26;12.98;;;2.60;;
11988;SDS011;6054;50.966;7.094;2023-02-01T11:20:56;16.10;;;2.70;;
11988;SDS011;6054;50.966;7.094;2023-02-01T11:23:26;10.52;;;2.58;;
11988;SDS011;6054;50.966;7.094;2023-02-01T11:25:55;11.32;;;2.58;;
11988;SDS011;6054;50.966;7.094;2023-02-01T11:28:24;12.57;;;2.85;;
11988;SDS011;6054;50.966;7.094;2023-02-01T11:30:54;13.43;;;2.88;;
11988;SDS011;6054;50.966;7.094;2023-02-01T11:33:23;13.05;;;2.97;;
11988;SDS011;6054;50.966;7.094;2023-02-01T11:35:55;15.02;;;2.90;;
11988;SDS011;6054;50.966;7.094;2023-02-01T11:38:26;15.98;;;3.00;;
11988;SDS011;6054;50.966;7.094;2023-02-01T11:40:56;13.50;;;2.92;;
11988;SDS011;6054;50.966;7.094;2023-02-01T11:43:38;16.17;;;2.85;;
11988;SDS011;6054;50.966;7.094;2023-02-01T11:46:18;14.27;;;3.10;;
11988;SDS011;6054;50.966;7.094;2023-02-01T11:48:51;11.95;;;3.33;;
11988;SDS011;6054;50.966;7.094;2023-02-01T11:51:22;15.43;;;3.25;;
11988;SDS011;6054;50.966;7.094;2023-02-01T11:54:07;13.15;;;2.78;;
11988;SDS011;6054;50.966;7.094;2023-02-01T11:56:45;10.93;;;2.83;;
11988;SDS011;6054;50.966;7.094;2023-02-01T11:59:27;14.98;;;3.58;;
11988;SDS011;6054;50.966;7.094;2023-02-01T12:05:06;10.15;;;3.40;;
11988;SDS011;6054;50.966;7.094;2023-02-01T12:07:49;12.95;;;3.10;;
11988;SDS011;6054;50.966;7.094;2023-02-01T12:10:30;9.35;;;2.55;;
11988;SDS011;6054;50.966;7.094;2023-02-01T12:13:09;14.18;;;2.72;;
11988;SDS011;6054;50.966;7.094;2023-02-01T12:15:46;14.55;;;2.92;;
11988;SDS011;6054;50.966;7.094;2023-02-01T12:21:30;10.75;;;2.90;;
11988;SDS011;6054;50.966;7.094;2023-02-01T12:24:12;11.48;;;2.90;;
11988;SDS011;6054;50.966;7.094;2023-02-01T12:26:55;9.70;;;3.20;;
11988;SDS011;6054;50.966;7.094;2023-02-01T12:32:25;8.75;;;2.58;;
11988;SDS011;6054;50.966;7.094;2023-02-01T12:35:11;10.52;;;2.53;;
11988;SDS011;6054;50.966;7.094;2023-02-01T12:38:00;17.05;;;3.40;;
11988;SDS011;6054;50.966;7.094;2023-02-01T12:40:41;11.27;;;2.70;;
11988;SDS011;6054;50.966;7.094;2023-02-01T12:43:15;13.15;;;2.75;;
11988;SDS011;6054;50.966;7.094;2023-02-01T12:45:51;12.50;;;2.88;;
11988;SDS011;6054;50.966;7.094;2023-02-01T12:48:26;11.98;;;3.00;;
11988;SDS011;6054;50.966;7.094;2023-02-01T12:50:56;12.02;;;3.33;;
11988;SDS011;6054;50.966;7.094;2023-02-01T12:53:30;14.55;;;2.63;;
11988;SDS011;6054;50.966;7.094;2023-02-01T12:56:04;9.98;;;3.42;;
11988;SDS011;6054;50.966;7.094;2023-02-01T12:58:38;9.85;;;3.05;;
11988;SDS011;6054;50.966;7.094;2023-02-01T13:01:11;13.23;;;3.13;;
11988;SDS011;6054;50.966;7.094;2023-02-01T13:03:42;12.48;;;2.75;;
11988;SDS011;6054;50.966;7.094;2023-02-01T13:06:17;14.57;;;3.03;;
11988;SDS011;6054;50.966;7.094;2023-02-01T13:08:50;9.07;;;2.50;;
11988;SDS011;6054;50.966;7.094;2023-02-01T13:11:24;11.90;;;3.08;;
11988;SDS011;6054;50.966;7.094;2023-02-01T13:13:56;9.98;;;2.85;;
11988;SDS011;6054;50.966;7.094;2023-02-01T13:16:27;17.13;;;2.97;;
11988;SDS011;6054;50.966;7.094;2023-02-01T13:18:59;15.65;;;3.00;;
11988;SDS011;6054;50.966;7.094;2023-02-01T13:21:33;11.32;;;2.45;;
11988;SDS011;6054;50.966;7.094;2023-02-01T13:24:06;8.73;;;2.30;;
11988;SDS011;6054;50.966;7.094;2023-02-01T13:26:46;12.75;;;3.13;;
11988;SDS011;6054;50.966;7.094;2023-02-01T13:29:13;6.35;;;1.88;;
11988;SDS011;6054;50.966;7.094;2023-02-01T13:31:47;11.45;;;2.88;;
11988;SDS011;6054;50.966;7.094;2023-02-01T13:37:35;9.98;;;2.63;;
11988;SDS011;6054;50.966;7.094;2023-02-01T13:40:21;11.82;;;2.53;;
11988;SDS011;6054;50.966;7.094;2023-02-01T13:43:02;13.02;;;3.05;;
11988;SDS011;6054;50.966;7.094;2023-02-01T13:45:34;13.85;;;2.80;;
11988;SDS011;6054;50.966;7.094;2023-02-01T13:48:14;8.10;;;2.55;;
11988;SDS011;6054;50.966;7.094;2023-02-01T13:50:49;12.05;;;3.00;;
11988;SDS011;6054;50.966;7.094;2023-02-01T13:53:18;14.43;;;3.88;;
11988;SDS011;6054;50.966;7.094;2023-02-01T13:55:54;14.25;;;3.20;;
11988;SDS011;6054;50.966;7.094;2023-02-01T13:58:30;12.57;;;3.15;;
11988;SDS011;6054;50.966;7.094;2023-02-01T14:04:01;10.25;;;2.40;;
11988;SDS011;6054;50.966;7.094;2023-02-01T14:06:40;8.63;;;2.50;;
11988;SDS011;6054;50.966;7.094;2023-02-01T14:09:17;8.73;;;2.38;;
11988;SDS011;6054;50.966;7.094;2023-02-01T14:11:50;12.85;;;2.80;;
11988;SDS011;6054;50.966;7.094;2023-02-01T14:23:21;9.20;;;2.30;;
11988;SDS011;6054;50.966;7.094;2023-02-01T14:28:46;13.23;;;2.55;;
11988;SDS011;6054;50.966;7.094;2023-02-01T14:31:26;9.75;;;2.40;;
11988;SDS011;6054;50.966;7.094;2023-02-01T14:34:12;10.05;;;3.33;;
11988;SDS011;6054;50.966;7.094;2023-02-01T14:36:43;9.23;;;2.67;;
11988;SDS011;6054;50.966;7.094;2023-02-01T14:39:18;9.70;;;2.20;;
11988;SDS011;6054;50.966;7.094;2023-02-01T14:41:52;10.48;;;2.70;;
11988;SDS011;6054;50.966;7.094;2023-02-01T14:44:31;9.15;;;2.25;;
11988;SDS011;6054;50.966;7.094;2023-02-01T14:47:06;9.82;;;2.65;;
11988;SDS011;6054;50.966;7.094;2023-02-01T14:49:54;11.48;;;2.35;;
11988;SDS011;6054;50.966;7.094;2023-02-01T14:52:28;9.48;;;2.95;;
11988;SDS011;6054;50.966;7.094;2023-02-01T14:55:00;15.13;;;2.42;;
11988;SDS011;6054;50.966;7.094;2023-02-01T14:57:30;9.95;;;2.47;;
11988;SDS011;6054;50.966;7.094;2023-02-01T15:00:06;8.77;;;2.25;;
11988;SDS011;6054;50.966;7.094;2023-02-01T15:02:40;14.63;;;2.40;;
11988;SDS011;6054;50.966;7.094;2023-02-01T15:05:19;13.18;;;3.05;;
11988;SDS011;6054;50.966;7.094;2023-02-01T15:07:57;11.05;;;2.78;;
11988;SDS011;6054;50.966;7.094;2023-02-01T15:10:29;11.02;;;2.67;;
11988;SDS011;6054;50.966;7.094;2023-02-01T15:12:58;12.35;;;2.55;;
11988;SDS011;6054;50.966;7.094;2023-02-01T15:15:26;14.00;;;2.45;;
11988;SDS011;6054;50.966;7.094;2023-02-01T15:17:54;9.50;;;2.28;;
11988;SDS011;6054;50.966;7.094;2023-02-01T15:20:23;7.30;;;2.17;;
11988;SDS011;6054;50.966;7.094;2023-02-01T15:22:55;9.48;;;2.60;;
11988;SDS011;6054;50.966;7.094;2023-02-01T15:25:25;8.48;;;2.30;;
11988;SDS011;6054;50.966;7.094;2023-02-01T15:27:54;13.50;;;2.80;;
11988;SDS011;6054;50.966;7.094;2023-02-01T15:30:22;12.77;;;2.75;;
11988;SDS011;6054;50.966;7.094;2023-02-01T15:32:52;11.98;;;2.50;;
11988;SDS011;6054;50.966;7.094;2023-02-01T15:35:36;12.35;;;2.67;;
11988;SDS011;6054;50.966;7.094;2023-02-01T15:41:09;7.00;;;2.67;;
11988;SDS011;6054;50.966;7.094;2023-02-01T15:43:40;10.50;;;2.45;;
11988;SDS011;6054;50.966;7.094;2023-02-01T15:46:10;9.02;;;2.10;;
11988;SDS011;6054;50.966;7.094;2023-02-01T15:48:41;7.55;;;2.15;;
11988;SDS011;6054;50.966;7.094;2023-02-01T15:51:11;8.88;;;2.00;;
11988;SDS011;6054;50.966;7.094;2023-02-01T15:53:43;11.60;;;2.28;;